Impacts METAR Board
IDs:

KPHL - Philadelphia Intl, PA, US

Updated at: 1300 UTC 07 Jul 2020
Potential Impact None Slight Moderate High
Time 07/01Z 07/02Z 07/03Z 07/04Z 07/05Z 07/06Z 07/07Z 07/08Z 07/09Z 07/10Z 07/11Z 07/12Z 07/13Z
Temp72 71 72 72 71 70 69 69 68 69 71 74 77
Dewpt68 67 66 67 67 67 66 65 65 64 65 67 68
Altim30.08 30.05 30.07 30.08 30.09 30.09 30.09 30.08 30.08 30.09 30.09 30.09 30.09
VIS10 10 10 10 10 10 10 10 10 10 10 10 10
CIG130 140 230 230 -- -- -- 160 -- -- -- -- --
CoverOVCBKNBKNBKNSCTFEWSCTBKNFEWFEWSCTFEWFEW
FltCatVFRVFRVFRVFRVFRVFRVFRVFRVFRVFRVFRVFRVFR
WX-RA-RA----------------------
WDir2402202903505080900402040700
WSpd6 17 5 6 6 6 6 0 3 3 4 3 0
WGst-- -- -- -- -- -- -- -- -- -- -- -- --
Raw hourly METARs
KPHL 070054Z 24006KT 10SM -RA FEW050 BKN130 OVC220 22/20 A3008 RMK AO2 LTG DSNT W RAB15 SLP185 P0001 T02220200
KPHL 070154Z 22017KT 10SM -RA SCT110 BKN140 22/19 A3005 RMK AO2 SLP174 P0002 T02170194
KPHL 070254Z 29005KT 10SM SCT150 BKN230 22/19 A3007 RMK AO2 RAE15 SLP183 P0000 60003 T02220189 51009
KPHL 070354Z 35006KT 10SM SCT150 BKN230 22/19 A3008 RMK AO2 SLP185 T02220194
KPHL 070454Z 05006KT 10SM SCT230 SCT300 22/19 A3009 RMK AO2 SLP188 T02170194 403330206
KPHL 070554Z 08006KT 10SM FEW260 21/19 A3009 RMK AO2 SLP189 60003 T02110194 10228 20211 51006
KPHL 070654Z 09006KT 10SM SCT180 SCT230 21/19 A3009 RMK AO2 SLP188 T02060189
KPHL 070754Z 00000KT 10SM BKN160 BKN230 21/18 A3008 RMK AO2 SLP186 T02060183
KPHL 070854Z 04003KT 10SM FEW230 FEW280 20/18 A3008 RMK AO2 SLP185 T02000183 57004
KPHL 070954Z 02003KT 10SM FEW150 FEW220 21/18 A3009 RMK AO2 SLP187 T02060178
KPHL 071054Z 04004KT 10SM FEW022 SCT140 SCT220 22/18 A3009 RMK AO2 SLP188 T02170183
KPHL 071154Z 07003KT 10SM FEW022 FEW140 23/19 A3009 RMK AO2 SLP189 70024 T02330194 10233 20194 51004
KPHL 071254Z 00000KT 10SM FEW022 FEW140 25/20 A3009 RMK AO2 SLP189 T02500200



Page loaded:  13:09 UTC  |   06:09 AM Pacific  |   07:09 AM Mountain  |   08:09 AM Central  |   09:09 AM Eastern

 

ADVISORIES

FORECASTS

FORECASTS

OBSERVATIONS

USER TOOLS

ABOUT US